Port Au Choix, Canada
Current Conditions -  °F | °C
As of 1:00 AM on Monday 24 Nov 2014 (Local Time) from CWDH Reporting Station
Clear Clear  
Wind Chill: 13°   Ceiling: Unl
Heat Index: 25°   Visibility: 9mi
Dew Point: 10°   Wind: 15mph
Humidity: 52%   Direction: 300°WNW
Pressure: 30.03"   Gusts: 22mph
Location:  50.72°N, 57.37°W
Report Text: CWDH 240400Z AUTO 30013G19KT 9SM NSC M04/M12 A3003 RMK SLP171 PK WND 32021/// T10381123 WSI/SWOB
Loading
Personal Weather Stations






























Interactive Weather Map New forecast layout! Learn more

10-Day Weather Forecast

Advertisements
Track Severe Weather on mobile